Ferdinand, Indiana
Current Conditions -  °F | °C
As of 10:15 AM on Sunday 25 Jan 2015 (Local Time) from KHNB Reporting Station
Overcast Overcast  
Wind Chill:   Ceiling: 4400
Heat Index:   Visibility: 8mi
Dew Point:   Wind: 9mph
Humidity: 81%   Direction: 170°S
Pressure: 29.68"   Gusts: NA
Location:  38.22°N, 86.86°W
Report Text: KHNB 251615Z AUTO 17008KT 8SM FEW034 OVC044 04/01 A2968 RMK AO1
Loading
Personal Weather Stations






























Interactive Weather Map New forecast layout! Learn more

10-Day Weather Forecast

Advertisements
Track Severe Weather on mobile